createdAt,value
2022-12-11T00:05:01.115Z,16.73
2022-12-11T00:10:05.069Z,16.00
2022-12-11T00:15:12.958Z,16.83
2022-12-11T00:20:19.833Z,15.88
2022-12-11T00:25:23.938Z,16.27
2022-12-11T00:30:30.235Z,16.42
2022-12-11T00:35:34.925Z,16.38
2022-12-11T00:40:38.309Z,15.27
2022-12-11T00:45:44.839Z,14.73
2022-12-11T00:50:48.799Z,15.88
2022-12-11T00:55:52.487Z,13.77
2022-12-11T01:01:06.355Z,14.25
2022-12-11T01:06:10.774Z,16.00
2022-12-11T01:11:15.678Z,16.00
2022-12-11T01:16:23.843Z,15.82
2022-12-11T01:21:27.552Z,15.02
2022-12-11T01:26:31.654Z,15.65
2022-12-11T01:31:38.248Z,15.90
2022-12-11T01:36:42.388Z,15.43
2022-12-11T01:41:46.203Z,15.30
2022-12-11T01:46:51.705Z,16.08
2022-12-11T01:51:59.476Z,15.13
2022-12-11T01:57:05.423Z,15.00
2022-12-11T02:02:12.094Z,15.07
2022-12-11T02:07:16.661Z,16.15
2022-12-11T02:12:22.923Z,13.27
2022-12-11T02:17:33.711Z,14.35
2022-12-11T02:23:00.833Z,14.23
2022-12-11T02:28:24.342Z,15.45
2022-12-11T02:33:31.284Z,10.80
2022-12-11T02:38:36.094Z,15.43
2022-12-11T02:43:40.889Z,13.60
2022-12-11T02:48:44.684Z,14.48
2022-12-11T02:53:48.048Z,11.38
2022-12-11T02:58:58.565Z,13.80
2022-12-11T03:04:03.741Z,11.65
2022-12-11T03:09:09.036Z,15.15
2022-12-11T03:14:14.948Z,12.38
2022-12-11T03:19:21.684Z,10.57
2022-12-11T03:24:28.087Z,9.35
2022-12-11T03:29:37.059Z,15.93
2022-12-11T03:34:44.046Z,13.93
2022-12-11T03:39:54.054Z,15.18
2022-12-11T03:44:58.697Z,12.95
2022-12-11T03:50:02.509Z,13.23
2022-12-11T03:55:09.205Z,14.32
2022-12-11T04:00:16.987Z,10.70
2022-12-11T04:05:21.025Z,12.65
2022-12-11T04:10:24.670Z,13.05
2022-12-11T04:15:30.755Z,13.07
2022-12-11T04:20:52.195Z,12.50
2022-12-11T04:25:55.719Z,11.25
2022-12-11T04:31:00.397Z,12.45
2022-12-11T04:36:06.658Z,9.43
2022-12-11T04:41:12.148Z,11.87
2022-12-11T04:46:18.204Z,12.03
2022-12-11T04:51:21.997Z,12.07
2022-12-11T04:56:25.740Z,11.33
2022-12-11T05:01:30.491Z,13.30
2022-12-11T05:06:33.705Z,11.57
2022-12-11T05:11:37.766Z,13.40
2022-12-11T05:16:43.821Z,14.25
2022-12-11T05:21:48.574Z,11.65
2022-12-11T05:26:55.111Z,8.20
2022-12-11T05:32:03.568Z,10.67
2022-12-11T05:37:07.491Z,9.73
2022-12-11T05:42:11.229Z,10.27
2022-12-11T05:47:16.753Z,11.43
2022-12-11T05:52:20.178Z,6.97
2022-12-11T05:57:24.039Z,9.60
2022-12-11T06:02:29.873Z,8.77
2022-12-11T06:07:39.113Z,8.70
2022-12-11T06:12:44.045Z,11.07
2022-12-11T06:17:48.943Z,7.77
2022-12-11T06:22:52.968Z,11.20
2022-12-11T06:27:56.203Z,6.53
2022-12-11T06:33:01.347Z,8.73
2022-12-11T06:38:06.215Z,12.10
2022-12-11T06:43:10.520Z,13.03
2022-12-11T06:48:15.850Z,11.90
2022-12-11T06:53:22.287Z,11.07
2022-12-11T06:58:25.626Z,11.83
2022-12-11T07:03:31.374Z,10.47
2022-12-11T07:08:35.193Z,9.77
2022-12-11T07:13:38.928Z,10.73
2022-12-11T07:18:45.804Z,8.33
2022-12-11T07:23:49.758Z,9.43
2022-12-11T07:28:53.221Z,11.60
2022-12-11T07:33:58.048Z,10.90
2022-12-11T07:39:01.802Z,10.40
2022-12-11T07:44:05.648Z,11.23
2022-12-11T07:49:10.878Z,12.30
2022-12-11T07:54:17.180Z,10.83
2022-12-11T07:59:21.197Z,10.53
2022-12-11T08:04:25.959Z,6.60
2022-12-11T08:09:29.068Z,8.35
2022-12-11T08:14:32.566Z,10.85
2022-12-11T08:19:37.761Z,10.75
2022-12-11T08:24:41.913Z,9.50
2022-12-11T08:29:48.058Z,9.70
2022-12-11T08:34:53.794Z,9.38
2022-12-11T08:39:57.419Z,9.27
2022-12-11T08:45:00.796Z,7.25
2022-12-11T08:50:06.064Z,8.68
2022-12-11T08:55:11.519Z,6.65
2022-12-11T09:00:16.359Z,8.23
2022-12-11T09:05:22.610Z,9.23
2022-12-11T09:10:30.404Z,8.35
2022-12-11T09:15:36.163Z,7.60
2022-12-11T09:20:41.164Z,6.80
2022-12-11T09:25:44.681Z,5.93
2022-12-11T09:30:48.176Z,8.40
2022-12-11T09:36:00.524Z,8.02
2022-12-11T09:41:04.851Z,8.07
2022-12-11T09:46:12.185Z,9.20
2022-12-11T09:51:21.013Z,9.60
2022-12-11T09:56:29.217Z,8.57
2022-12-11T10:01:38.466Z,9.23
2022-12-11T10:06:46.829Z,8.93
2022-12-11T10:12:00.565Z,8.90
2022-12-11T10:17:06.541Z,8.23
2022-12-11T10:22:17.037Z,8.07
2022-12-11T10:27:21.800Z,8.77
2022-12-11T10:32:25.995Z,8.38
2022-12-11T10:37:31.586Z,8.05
2022-12-11T10:42:35.131Z,7.57
2022-12-11T10:47:39.312Z,9.23
2022-12-11T10:52:45.991Z,10.93
2022-12-11T10:57:56.912Z,9.57
2022-12-11T11:03:00.215Z,10.70
2022-12-11T11:08:17.308Z,9.23
2022-12-11T11:13:22.025Z,9.95
2022-12-11T11:18:27.240Z,9.52
2022-12-11T11:23:32.162Z,9.85
2022-12-11T11:28:36.675Z,8.65
2022-12-11T11:33:48.232Z,7.82
2022-12-11T11:39:05.762Z,8.80
2022-12-11T11:44:11.760Z,9.60
2022-12-11T11:49:17.860Z,9.98
2022-12-11T11:54:29.655Z,10.00
2022-12-11T11:59:34.936Z,7.95
2022-12-11T12:04:39.343Z,8.85
2022-12-11T12:09:50.883Z,9.23
2022-12-11T12:15:00.660Z,9.25
2022-12-11T12:20:10.899Z,7.43
2022-12-11T12:25:20.778Z,8.25
2022-12-11T12:30:24.662Z,8.50
2022-12-11T12:35:35.554Z,6.93
2022-12-11T12:40:44.928Z,8.48
2022-12-11T12:45:51.987Z,8.05
2022-12-11T12:50:55.865Z,8.50
2022-12-11T12:56:00.998Z,8.10
2022-12-11T13:01:12.170Z,8.98
2022-12-11T13:06:16.846Z,8.15
2022-12-11T13:11:22.972Z,8.15
2022-12-11T13:16:28.884Z,8.88
2022-12-11T13:21:33.695Z,8.15
2022-12-11T13:26:40.055Z,8.85
2022-12-11T13:31:45.157Z,8.50
2022-12-11T13:36:49.559Z,8.48
2022-12-11T13:41:58.212Z,7.85
2022-12-11T13:47:03.039Z,8.13
2022-12-11T13:52:06.841Z,9.20
2022-12-11T13:57:18.147Z,8.88
2022-12-11T14:02:23.831Z,8.98
2022-12-11T14:07:29.901Z,5.90
2022-12-11T14:23:15.327Z,6.38
2022-12-11T14:28:20.097Z,10.03
2022-12-11T14:33:26.605Z,8.93
2022-12-11T14:38:32.173Z,8.90
2022-12-11T14:43:36.810Z,9.32
2022-12-11T14:48:45.147Z,9.45
2022-12-11T14:53:52.994Z,10.05
2022-12-11T14:59:02.885Z,9.43
2022-12-11T15:04:16.857Z,7.65
2022-12-11T15:09:21.951Z,8.77
2022-12-11T15:14:30.264Z,9.00
2022-12-11T15:19:35.847Z,8.77
2022-12-11T15:24:41.595Z,9.13
2022-12-11T15:29:45.423Z,8.75
2022-12-11T15:34:51.355Z,9.38
2022-12-11T15:39:58.303Z,9.43
2022-12-11T15:45:02.671Z,8.93
2022-12-11T15:50:17.015Z,10.25
2022-12-11T15:55:20.715Z,9.23
2022-12-11T16:00:24.757Z,7.53
2022-12-11T16:05:29.959Z,8.57
2022-12-11T16:10:34.000Z,9.80
2022-12-11T16:15:39.500Z,6.80
2022-12-11T16:20:45.526Z,9.50
2022-12-11T16:25:49.226Z,11.00
2022-12-11T16:30:52.637Z,10.50
2022-12-11T16:35:59.377Z,8.45
2022-12-11T16:41:03.208Z,10.05
2022-12-11T16:46:07.785Z,8.88
2022-12-11T16:51:13.191Z,9.77
2022-12-11T16:56:20.157Z,10.38
2022-12-11T17:01:24.612Z,10.77
2022-12-11T17:06:31.637Z,9.68
2022-12-11T17:11:35.395Z,9.13
2022-12-11T17:16:46.106Z,9.38
2022-12-11T17:21:59.275Z,9.80
2022-12-11T17:27:03.563Z,11.52
2022-12-11T17:32:35.508Z,10.70
2022-12-11T17:37:47.909Z,11.55
2022-12-11T17:42:54.067Z,10.65
2022-12-11T17:47:57.697Z,10.55
2022-12-11T17:53:02.948Z,10.45
2022-12-11T17:58:06.413Z,10.80
2022-12-11T18:03:10.476Z,10.60
2022-12-11T18:08:15.646Z,10.95
2022-12-11T18:13:22.911Z,11.18
2022-12-11T18:18:27.720Z,11.90
2022-12-11T18:23:33.102Z,11.10
2022-12-11T18:28:37.908Z,11.30
2022-12-11T18:33:42.695Z,12.13
2022-12-11T18:38:48.355Z,11.45
2022-12-11T18:43:51.809Z,12.40
2022-12-11T18:48:58.019Z,11.30
2022-12-11T18:54:02.967Z,12.82
2022-12-11T18:59:06.438Z,12.15
2022-12-11T19:04:11.576Z,11.00
2022-12-11T19:09:17.073Z,12.43
2022-12-11T19:14:21.088Z,10.85
2022-12-11T19:19:24.460Z,12.55
2022-12-11T19:24:29.897Z,11.75
2022-12-11T19:29:34.787Z,12.45
2022-12-11T19:34:39.869Z,12.30
2022-12-11T19:39:44.950Z,12.23
2022-12-11T19:44:48.223Z,12.95
2022-12-11T19:49:53.886Z,11.38
2022-12-11T19:55:01.994Z,13.02
2022-12-11T20:00:08.245Z,13.15
2022-12-11T20:05:16.208Z,13.20
2022-12-11T20:10:23.629Z,13.00
2022-12-11T20:15:27.895Z,12.80
2022-12-11T20:20:32.890Z,12.50
2022-12-11T20:25:40.215Z,13.70
2022-12-11T20:30:44.326Z,13.48
2022-12-11T20:35:50.626Z,13.88
2022-12-11T20:40:55.658Z,14.07
2022-12-11T20:46:00.865Z,13.40
2022-12-11T20:51:06.417Z,13.52
2022-12-11T20:56:16.952Z,13.57
2022-12-11T21:01:21.899Z,13.20
2022-12-11T21:06:29.831Z,12.63
2022-12-11T21:11:37.326Z,12.27
2022-12-11T21:16:51.644Z,13.45
2022-12-11T21:21:57.737Z,13.57
2022-12-11T21:27:05.430Z,13.32
2022-12-11T21:32:10.909Z,13.63
2022-12-11T21:37:15.057Z,10.73
2022-12-11T21:42:21.640Z,13.75
2022-12-11T21:47:25.049Z,13.93
2022-12-11T21:52:29.456Z,13.93
2022-12-11T21:57:35.042Z,11.35
2022-12-11T22:02:41.051Z,13.68
2022-12-11T22:07:46.842Z,13.50
2022-12-11T22:12:56.095Z,12.75
2022-12-11T22:23:12.784Z,13.15
2022-12-11T22:28:17.613Z,12.05
2022-12-11T22:33:20.873Z,12.82
2022-12-11T22:38:24.841Z,11.07
2022-12-11T22:43:29.899Z,12.95
2022-12-11T22:48:33.226Z,13.90
2022-12-11T22:53:36.951Z,12.82
2022-12-11T22:58:42.607Z,13.30
2022-12-11T23:03:47.704Z,12.68
2022-12-11T23:08:52.912Z,12.50
2022-12-11T23:13:59.483Z,13.60
2022-12-11T23:19:03.215Z,11.95
2022-12-11T23:24:06.920Z,13.23
2022-12-11T23:29:11.927Z,11.82
2022-12-11T23:34:15.622Z,11.43
2022-12-11T23:39:19.327Z,11.63
2022-12-11T23:44:29.756Z,11.38
2022-12-11T23:49:33.125Z,10.93
2022-12-11T23:54:37.073Z,10.80
2022-12-11T23:59:42.477Z,10.60
